sensor_id;sensor_type;location;lat;lon;timestamp;temperature;humidity
6252;DHT22;3159;52.414;9.784;2023-08-21T00:00:12;23.60;99.90
6252;DHT22;3159;52.414;9.784;2023-08-21T00:02:39;23.50;99.90
6252;DHT22;3159;52.414;9.784;2023-08-21T00:05:07;23.50;99.90
6252;DHT22;3159;52.414;9.784;2023-08-21T00:07:36;23.50;99.90
6252;DHT22;3159;52.414;9.784;2023-08-21T00:10:03;23.50;99.90
6252;DHT22;3159;52.414;9.784;2023-08-21T00:12:30;23.50;99.90
6252;DHT22;3159;52.414;9.784;2023-08-21T00:14:57;23.50;99.90
6252;DHT22;3159;52.414;9.784;2023-08-21T00:17:24;23.40;99.90
6252;DHT22;3159;52.414;9.784;2023-08-21T00:19:51;23.40;99.90
6252;DHT22;3159;52.414;9.784;2023-08-21T00:22:18;23.30;99.90
6252;DHT22;3159;52.414;9.784;2023-08-21T00:24:47;23.30;99.90
6252;DHT22;3159;52.414;9.784;2023-08-21T00:27:13;23.20;99.90
6252;DHT22;3159;52.414;9.784;2023-08-21T00:29:40;22.90;99.90
6252;DHT22;3159;52.414;9.784;2023-08-21T00:32:07;22.90;99.90
6252;DHT22;3159;52.414;9.784;2023-08-21T00:34:34;23.00;99.90
6252;DHT22;3159;52.414;9.784;2023-08-21T00:37:01;23.00;99.90
6252;DHT22;3159;52.414;9.784;2023-08-21T00:39:27;23.00;99.90
6252;DHT22;3159;52.414;9.784;2023-08-21T00:41:56;23.00;99.90
6252;DHT22;3159;52.414;9.784;2023-08-21T00:44:23;23.00;99.90
6252;DHT22;3159;52.414;9.784;2023-08-21T00:46:50;23.00;99.90
6252;DHT22;3159;52.414;9.784;2023-08-21T00:49:17;23.00;99.90
6252;DHT22;3159;52.414;9.784;2023-08-21T00:51:44;23.00;99.90
6252;DHT22;3159;52.414;9.784;2023-08-21T00:54:11;22.90;99.90
6252;DHT22;3159;52.414;9.784;2023-08-21T00:56:38;22.90;99.90
6252;DHT22;3159;52.414;9.784;2023-08-21T00:59:08;22.90;99.90
6252;DHT22;3159;52.414;9.784;2023-08-21T01:01:35;22.80;99.90
6252;DHT22;3159;52.414;9.784;2023-08-21T01:04:03;22.80;99.90
6252;DHT22;3159;52.414;9.784;2023-08-21T01:06:30;22.80;99.90
6252;DHT22;3159;52.414;9.784;2023-08-21T01:09:02;22.80;99.90
6252;DHT22;3159;52.414;9.784;2023-08-21T01:11:35;22.70;99.90
6252;DHT22;3159;52.414;9.784;2023-08-21T01:14:09;22.70;99.90
6252;DHT22;3159;52.414;9.784;2023-08-21T01:16:37;22.70;99.90
6252;DHT22;3159;52.414;9.784;2023-08-21T01:19:10;22.70;99.90
6252;DHT22;3159;52.414;9.784;2023-08-21T01:21:38;22.70;99.90
6252;DHT22;3159;52.414;9.784;2023-08-21T01:24:07;22.70;99.90
6252;DHT22;3159;52.414;9.784;2023-08-21T01:26:34;22.70;99.90
6252;DHT22;3159;52.414;9.784;2023-08-21T01:29:01;22.60;99.90
6252;DHT22;3159;52.414;9.784;2023-08-21T01:31:31;22.60;99.90
6252;DHT22;3159;52.414;9.784;2023-08-21T01:34:09;22.60;99.90
6252;DHT22;3159;52.414;9.784;2023-08-21T01:36:38;22.60;99.90
6252;DHT22;3159;52.414;9.784;2023-08-21T01:39:08;22.60;99.90
6252;DHT22;3159;52.414;9.784;2023-08-21T01:41:35;22.50;99.90
6252;DHT22;3159;52.414;9.784;2023-08-21T01:44:02;22.50;99.90
6252;DHT22;3159;52.414;9.784;2023-08-21T01:46:29;22.40;99.90
6252;DHT22;3159;52.414;9.784;2023-08-21T01:48:56;22.40;99.90
6252;DHT22;3159;52.414;9.784;2023-08-21T01:51:23;22.40;99.90
6252;DHT22;3159;52.414;9.784;2023-08-21T01:53:50;22.40;99.90
6252;DHT22;3159;52.414;9.784;2023-08-21T01:56:18;22.40;99.90
6252;DHT22;3159;52.414;9.784;2023-08-21T01:58:45;22.30;99.90
6252;DHT22;3159;52.414;9.784;2023-08-21T02:01:12;22.40;99.90
6252;DHT22;3159;52.414;9.784;2023-08-21T02:03:40;22.40;99.90
6252;DHT22;3159;52.414;9.784;2023-08-21T02:06:07;22.30;99.90
6252;DHT22;3159;52.414;9.784;2023-08-21T02:08:34;22.30;99.90
6252;DHT22;3159;52.414;9.784;2023-08-21T02:11:01;22.30;99.90
6252;DHT22;3159;52.414;9.784;2023-08-21T02:13:29;22.30;99.90
6252;DHT22;3159;52.414;9.784;2023-08-21T02:15:56;22.30;99.90
6252;DHT22;3159;52.414;9.784;2023-08-21T02:18:23;22.30;99.90
6252;DHT22;3159;52.414;9.784;2023-08-21T02:20:50;22.30;99.90
6252;DHT22;3159;52.414;9.784;2023-08-21T02:23:16;22.20;99.90
6252;DHT22;3159;52.414;9.784;2023-08-21T02:25:43;22.20;99.90
6252;DHT22;3159;52.414;9.784;2023-08-21T02:28:10;22.20;99.90
6252;DHT22;3159;52.414;9.784;2023-08-21T02:30:41;22.10;99.90
6252;DHT22;3159;52.414;9.784;2023-08-21T02:33:08;22.10;99.90
6252;DHT22;3159;52.414;9.784;2023-08-21T02:35:35;22.10;99.90
6252;DHT22;3159;52.414;9.784;2023-08-21T02:38:03;22.00;99.90
6252;DHT22;3159;52.414;9.784;2023-08-21T02:40:30;22.00;99.90
6252;DHT22;3159;52.414;9.784;2023-08-21T02:42:57;22.00;99.90
6252;DHT22;3159;52.414;9.784;2023-08-21T02:45:24;22.00;99.90
6252;DHT22;3159;52.414;9.784;2023-08-21T02:47:52;22.10;99.90
6252;DHT22;3159;52.414;9.784;2023-08-21T02:50:19;22.00;99.90
6252;DHT22;3159;52.414;9.784;2023-08-21T02:52:46;22.00;99.90
6252;DHT22;3159;52.414;9.784;2023-08-21T02:55:13;22.00;99.90
6252;DHT22;3159;52.414;9.784;2023-08-21T02:57:41;22.00;99.90
6252;DHT22;3159;52.414;9.784;2023-08-21T03:00:09;21.90;99.90
6252;DHT22;3159;52.414;9.784;2023-08-21T03:02:37;21.90;99.90
6252;DHT22;3159;52.414;9.784;2023-08-21T03:05:09;21.80;99.90
6252;DHT22;3159;52.414;9.784;2023-08-21T03:07:36;21.90;99.90
6252;DHT22;3159;52.414;9.784;2023-08-21T03:10:04;21.90;99.90
6252;DHT22;3159;52.414;9.784;2023-08-21T03:12:31;21.90;99.90
6252;DHT22;3159;52.414;9.784;2023-08-21T03:14:58;21.90;99.90
6252;DHT22;3159;52.414;9.784;2023-08-21T03:17:25;21.90;99.90
6252;DHT22;3159;52.414;9.784;2023-08-21T03:19:52;21.90;99.90
6252;DHT22;3159;52.414;9.784;2023-08-21T03:22:20;21.80;99.90
6252;DHT22;3159;52.414;9.784;2023-08-21T03:24:47;21.80;99.90
6252;DHT22;3159;52.414;9.784;2023-08-21T03:27:15;21.80;99.90
6252;DHT22;3159;52.414;9.784;2023-08-21T03:29:42;21.80;99.90
6252;DHT22;3159;52.414;9.784;2023-08-21T03:32:14;21.90;99.90
6252;DHT22;3159;52.414;9.784;2023-08-21T03:34:41;21.90;99.90
6252;DHT22;3159;52.414;9.784;2023-08-21T03:37:08;21.90;99.90
6252;DHT22;3159;52.414;9.784;2023-08-21T03:39:37;21.90;99.90
6252;DHT22;3159;52.414;9.784;2023-08-21T03:42:05;21.90;99.90
6252;DHT22;3159;52.414;9.784;2023-08-21T03:44:32;21.90;99.90
6252;DHT22;3159;52.414;9.784;2023-08-21T03:46:59;21.80;99.90
6252;DHT22;3159;52.414;9.784;2023-08-21T03:49:27;21.80;99.90
6252;DHT22;3159;52.414;9.784;2023-08-21T03:51:54;21.70;99.90
6252;DHT22;3159;52.414;9.784;2023-08-21T03:54:21;21.80;99.90
6252;DHT22;3159;52.414;9.784;2023-08-21T03:56:49;21.80;99.90
6252;DHT22;3159;52.414;9.784;2023-08-21T03:59:16;21.80;99.90
6252;DHT22;3159;52.414;9.784;2023-08-21T04:01:43;21.80;99.90
6252;DHT22;3159;52.414;9.784;2023-08-21T04:04:11;21.80;99.90
6252;DHT22;3159;52.414;9.784;2023-08-21T04:06:38;21.90;99.90
6252;DHT22;3159;52.414;9.784;2023-08-21T04:09:06;21.90;99.90
6252;DHT22;3159;52.414;9.784;2023-08-21T04:11:33;21.80;99.90
6252;DHT22;3159;52.414;9.784;2023-08-21T04:14:03;21.80;99.90
6252;DHT22;3159;52.414;9.784;2023-08-21T04:16:31;21.80;99.90
6252;DHT22;3159;52.414;9.784;2023-08-21T04:18:58;21.90;99.90
6252;DHT22;3159;52.414;9.784;2023-08-21T04:21:24;21.80;99.90
6252;DHT22;3159;52.414;9.784;2023-08-21T04:23:51;21.90;99.90
6252;DHT22;3159;52.414;9.784;2023-08-21T04:26:19;21.90;99.90
6252;DHT22;3159;52.414;9.784;2023-08-21T04:28:46;21.80;99.90
6252;DHT22;3159;52.414;9.784;2023-08-21T04:31:14;21.80;99.90
6252;DHT22;3159;52.414;9.784;2023-08-21T04:33:41;21.80;99.90
6252;DHT22;3159;52.414;9.784;2023-08-21T04:36:13;21.80;99.90
6252;DHT22;3159;52.414;9.784;2023-08-21T04:38:40;21.80;99.90
6252;DHT22;3159;52.414;9.784;2023-08-21T04:41:08;21.80;99.90
6252;DHT22;3159;52.414;9.784;2023-08-21T04:43:35;21.80;99.90
6252;DHT22;3159;52.414;9.784;2023-08-21T04:46:04;21.80;99.90
6252;DHT22;3159;52.414;9.784;2023-08-21T04:48:32;21.80;99.90
6252;DHT22;3159;52.414;9.784;2023-08-21T04:50:59;21.90;99.90
6252;DHT22;3159;52.414;9.784;2023-08-21T04:53:26;21.90;99.90
6252;DHT22;3159;52.414;9.784;2023-08-21T04:55:53;21.90;99.90
6252;DHT22;3159;52.414;9.784;2023-08-21T04:58:20;21.90;99.90
6252;DHT22;3159;52.414;9.784;2023-08-21T05:00:47;21.90;99.90
6252;DHT22;3159;52.414;9.784;2023-08-21T05:03:14;21.80;99.90
6252;DHT22;3159;52.414;9.784;2023-08-21T05:05:52;21.70;99.90
6252;DHT22;3159;52.414;9.784;2023-08-21T05:08:18;21.70;99.90
6252;DHT22;3159;52.414;9.784;2023-08-21T05:10:45;21.80;99.90
6252;DHT22;3159;52.414;9.784;2023-08-21T05:13:12;21.90;99.90
6252;DHT22;3159;52.414;9.784;2023-08-21T05:15:42;21.90;99.90
6252;DHT22;3159;52.414;9.784;2023-08-21T05:18:09;21.80;99.90
6252;DHT22;3159;52.414;9.784;2023-08-21T05:20:36;21.90;99.90
6252;DHT22;3159;52.414;9.784;2023-08-21T05:23:05;21.90;99.90
6252;DHT22;3159;52.414;9.784;2023-08-21T05:25:32;21.90;99.90
6252;DHT22;3159;52.414;9.784;2023-08-21T05:27:59;21.90;99.90
6252;DHT22;3159;52.414;9.784;2023-08-21T05:30:26;21.90;99.90
6252;DHT22;3159;52.414;9.784;2023-08-21T05:32:52;21.90;99.90
6252;DHT22;3159;52.414;9.784;2023-08-21T05:35:19;21.90;99.90
6252;DHT22;3159;52.414;9.784;2023-08-21T05:37:46;21.90;99.90
6252;DHT22;3159;52.414;9.784;2023-08-21T05:40:15;22.00;99.90
6252;DHT22;3159;52.414;9.784;2023-08-21T05:42:42;22.00;99.90
6252;DHT22;3159;52.414;9.784;2023-08-21T05:45:09;22.00;99.90
6252;DHT22;3159;52.414;9.784;2023-08-21T05:47:36;22.00;99.90
6252;DHT22;3159;52.414;9.784;2023-08-21T05:50:03;22.00;99.90
6252;DHT22;3159;52.414;9.784;2023-08-21T05:52:30;22.00;99.90
6252;DHT22;3159;52.414;9.784;2023-08-21T05:54:58;22.10;99.90
6252;DHT22;3159;52.414;9.784;2023-08-21T05:57:26;22.10;99.90
6252;DHT22;3159;52.414;9.784;2023-08-21T05:59:53;22.20;99.90
6252;DHT22;3159;52.414;9.784;2023-08-21T06:02:20;22.20;99.90
6252;DHT22;3159;52.414;9.784;2023-08-21T06:04:47;22.20;99.90
6252;DHT22;3159;52.414;9.784;2023-08-21T06:07:14;22.20;99.90
6252;DHT22;3159;52.414;9.784;2023-08-21T06:09:41;22.30;99.90
6252;DHT22;3159;52.414;9.784;2023-08-21T06:12:08;22.40;99.90
6252;DHT22;3159;52.414;9.784;2023-08-21T06:14:37;22.50;99.90
6252;DHT22;3159;52.414;9.784;2023-08-21T06:17:04;22.50;99.90
6252;DHT22;3159;52.414;9.784;2023-08-21T06:19:31;22.50;99.90
6252;DHT22;3159;52.414;9.784;2023-08-21T06:21:58;22.60;99.90
6252;DHT22;3159;52.414;9.784;2023-08-21T06:24:26;22.50;99.90
6252;DHT22;3159;52.414;9.784;2023-08-21T06:26:52;22.70;99.90
6252;DHT22;3159;52.414;9.784;2023-08-21T06:29:19;22.80;99.90
6252;DHT22;3159;52.414;9.784;2023-08-21T06:31:49;22.90;99.90
6252;DHT22;3159;52.414;9.784;2023-08-21T06:34:16;22.80;99.90
6252;DHT22;3159;52.414;9.784;2023-08-21T06:36:43;22.70;99.90
6252;DHT22;3159;52.414;9.784;2023-08-21T06:39:10;23.00;99.90
6252;DHT22;3159;52.414;9.784;2023-08-21T06:41:37;23.00;99.90
6252;DHT22;3159;52.414;9.784;2023-08-21T06:44:04;23.00;99.90
6252;DHT22;3159;52.414;9.784;2023-08-21T06:46:31;23.20;99.90
6252;DHT22;3159;52.414;9.784;2023-08-21T06:48:59;23.20;99.90
6252;DHT22;3159;52.414;9.784;2023-08-21T06:51:26;23.20;99.90
6252;DHT22;3159;52.414;9.784;2023-08-21T06:53:53;23.20;99.90
6252;DHT22;3159;52.414;9.784;2023-08-21T06:56:20;23.20;99.90
6252;DHT22;3159;52.414;9.784;2023-08-21T06:58:47;23.30;99.90
6252;DHT22;3159;52.414;9.784;2023-08-21T07:01:14;23.50;99.90
6252;DHT22;3159;52.414;9.784;2023-08-21T07:03:41;23.60;99.90
6252;DHT22;3159;52.414;9.784;2023-08-21T07:06:10;23.40;99.90
6252;DHT22;3159;52.414;9.784;2023-08-21T07:08:37;23.50;99.90
6252;DHT22;3159;52.414;9.784;2023-08-21T07:11:06;23.50;99.90
6252;DHT22;3159;52.414;9.784;2023-08-21T07:13:35;23.40;99.90
6252;DHT22;3159;52.414;9.784;2023-08-21T07:16:02;23.40;99.90
6252;DHT22;3159;52.414;9.784;2023-08-21T07:18:32;23.30;99.90
6252;DHT22;3159;52.414;9.784;2023-08-21T07:20:59;23.50;99.90
6252;DHT22;3159;52.414;9.784;2023-08-21T07:23:28;23.50;99.90
6252;DHT22;3159;52.414;9.784;2023-08-21T07:25:55;23.80;99.90
6252;DHT22;3159;52.414;9.784;2023-08-21T07:28:22;24.00;99.90
6252;DHT22;3159;52.414;9.784;2023-08-21T07:30:54;24.40;99.90
6252;DHT22;3159;52.414;9.784;2023-08-21T07:33:22;24.50;99.90
6252;DHT22;3159;52.414;9.784;2023-08-21T07:35:57;24.50;99.90
6252;DHT22;3159;52.414;9.784;2023-08-21T07:38:25;24.60;99.90
6252;DHT22;3159;52.414;9.784;2023-08-21T07:41:02;25.00;99.90
6252;DHT22;3159;52.414;9.784;2023-08-21T07:43:30;24.70;99.90
6252;DHT22;3159;52.414;9.784;2023-08-21T07:45:57;24.40;99.90
6252;DHT22;3159;52.414;9.784;2023-08-21T07:48:24;24.10;99.90
6252;DHT22;3159;52.414;9.784;2023-08-21T07:50:51;24.10;99.90
6252;DHT22;3159;52.414;9.784;2023-08-21T07:53:19;24.00;99.90
6252;DHT22;3159;52.414;9.784;2023-08-21T07:55:47;24.10;99.90
6252;DHT22;3159;52.414;9.784;2023-08-21T07:58:16;24.10;99.90
6252;DHT22;3159;52.414;9.784;2023-08-21T08:00:43;24.20;99.90
6252;DHT22;3159;52.414;9.784;2023-08-21T08:03:10;24.30;99.90
6252;DHT22;3159;52.414;9.784;2023-08-21T08:05:39;24.20;99.90
6252;DHT22;3159;52.414;9.784;2023-08-21T08:08:08;24.00;99.90
6252;DHT22;3159;52.414;9.784;2023-08-21T08:10:37;24.00;99.90
6252;DHT22;3159;52.414;9.784;2023-08-21T08:13:05;24.10;99.90
6252;DHT22;3159;52.414;9.784;2023-08-21T08:15:34;24.30;99.90
6252;DHT22;3159;52.414;9.784;2023-08-21T08:18:02;24.50;99.90
6252;DHT22;3159;52.414;9.784;2023-08-21T08:20:29;24.70;99.90
6252;DHT22;3159;52.414;9.784;2023-08-21T08:22:56;24.70;99.90
6252;DHT22;3159;52.414;9.784;2023-08-21T08:25:23;24.70;99.90
6252;DHT22;3159;52.414;9.784;2023-08-21T08:27:51;24.80;99.90
6252;DHT22;3159;52.414;9.784;2023-08-21T08:30:18;24.80;99.90
6252;DHT22;3159;52.414;9.784;2023-08-21T08:32:46;25.00;99.90
6252;DHT22;3159;52.414;9.784;2023-08-21T08:35:13;25.50;99.90
6252;DHT22;3159;52.414;9.784;2023-08-21T08:37:40;25.60;99.90
6252;DHT22;3159;52.414;9.784;2023-08-21T08:40:09;26.10;99.90
6252;DHT22;3159;52.414;9.784;2023-08-21T08:42:36;25.60;99.90
6252;DHT22;3159;52.414;9.784;2023-08-21T08:45:05;25.50;99.90
6252;DHT22;3159;52.414;9.784;2023-08-21T08:47:32;25.80;99.90
6252;DHT22;3159;52.414;9.784;2023-08-21T08:50:03;26.10;99.90
6252;DHT22;3159;52.414;9.784;2023-08-21T08:52:34;25.90;99.90
6252;DHT22;3159;52.414;9.784;2023-08-21T08:55:02;26.10;99.90
6252;DHT22;3159;52.414;9.784;2023-08-21T08:57:29;26.00;99.90
6252;DHT22;3159;52.414;9.784;2023-08-21T08:59:56;25.90;99.90
6252;DHT22;3159;52.414;9.784;2023-08-21T09:02:25;26.00;99.90
6252;DHT22;3159;52.414;9.784;2023-08-21T09:04:52;26.40;99.90
6252;DHT22;3159;52.414;9.784;2023-08-21T09:07:20;26.10;99.90
6252;DHT22;3159;52.414;9.784;2023-08-21T09:09:48;25.90;99.90
6252;DHT22;3159;52.414;9.784;2023-08-21T09:12:18;25.70;99.90
6252;DHT22;3159;52.414;9.784;2023-08-21T09:14:46;25.70;99.90
6252;DHT22;3159;52.414;9.784;2023-08-21T09:17:14;25.80;99.90
6252;DHT22;3159;52.414;9.784;2023-08-21T09:19:41;25.90;99.90
6252;DHT22;3159;52.414;9.784;2023-08-21T09:22:11;26.10;99.90
6252;DHT22;3159;52.414;9.784;2023-08-21T09:24:41;26.40;99.90
6252;DHT22;3159;52.414;9.784;2023-08-21T09:27:25;26.60;99.90
6252;DHT22;3159;52.414;9.784;2023-08-21T09:29:53;26.90;99.90
6252;DHT22;3159;52.414;9.784;2023-08-21T09:32:20;27.20;99.90
6252;DHT22;3159;52.414;9.784;2023-08-21T09:34:47;27.50;99.90
6252;DHT22;3159;52.414;9.784;2023-08-21T09:37:16;27.40;99.90
6252;DHT22;3159;52.414;9.784;2023-08-21T09:39:45;27.20;99.90
6252;DHT22;3159;52.414;9.784;2023-08-21T09:42:14;27.10;99.90
6252;DHT22;3159;52.414;9.784;2023-08-21T09:44:42;27.00;99.90
6252;DHT22;3159;52.414;9.784;2023-08-21T09:47:10;27.00;99.90
6252;DHT22;3159;52.414;9.784;2023-08-21T09:49:37;26.90;99.90
6252;DHT22;3159;52.414;9.784;2023-08-21T09:52:06;26.70;99.90
6252;DHT22;3159;52.414;9.784;2023-08-21T09:54:33;26.90;99.90
6252;DHT22;3159;52.414;9.784;2023-08-21T09:57:03;27.00;99.90
6252;DHT22;3159;52.414;9.784;2023-08-21T09:59:31;26.70;99.90
6252;DHT22;3159;52.414;9.784;2023-08-21T10:01:58;26.70;99.90
6252;DHT22;3159;52.414;9.784;2023-08-21T10:04:28;26.60;99.90
6252;DHT22;3159;52.414;9.784;2023-08-21T10:06:56;26.80;99.90
6252;DHT22;3159;52.414;9.784;2023-08-21T10:09:24;27.00;99.90
6252;DHT22;3159;52.414;9.784;2023-08-21T10:11:52;26.80;99.90
6252;DHT22;3159;52.414;9.784;2023-08-21T10:14:22;26.60;99.90
6252;DHT22;3159;52.414;9.784;2023-08-21T10:16:51;26.80;99.90
6252;DHT22;3159;52.414;9.784;2023-08-21T10:19:19;26.90;99.90
6252;DHT22;3159;52.414;9.784;2023-08-21T10:21:47;26.70;99.90
6252;DHT22;3159;52.414;9.784;2023-08-21T10:24:26;26.60;99.90
6252;DHT22;3159;52.414;9.784;2023-08-21T10:26:58;26.60;99.90
6252;DHT22;3159;52.414;9.784;2023-08-21T10:29:26;26.60;99.90
6252;DHT22;3159;52.414;9.784;2023-08-21T10:32:03;26.40;99.90
6252;DHT22;3159;52.414;9.784;2023-08-21T10:34:34;26.40;99.90
6252;DHT22;3159;52.414;9.784;2023-08-21T10:37:07;26.30;99.90
6252;DHT22;3159;52.414;9.784;2023-08-21T10:39:35;26.40;99.90
6252;DHT22;3159;52.414;9.784;2023-08-21T10:42:05;26.50;99.90
6252;DHT22;3159;52.414;9.784;2023-08-21T10:44:46;26.40;99.90
6252;DHT22;3159;52.414;9.784;2023-08-21T10:47:17;26.30;99.90
6252;DHT22;3159;52.414;9.784;2023-08-21T10:49:45;26.30;99.90
6252;DHT22;3159;52.414;9.784;2023-08-21T10:52:17;26.10;99.90
6252;DHT22;3159;52.414;9.784;2023-08-21T10:54:48;26.30;99.90
6252;DHT22;3159;52.414;9.784;2023-08-21T10:57:15;26.40;99.90
6252;DHT22;3159;52.414;9.784;2023-08-21T11:00:04;26.60;99.90
6252;DHT22;3159;52.414;9.784;2023-08-21T11:02:33;26.50;99.90
6252;DHT22;3159;52.414;9.784;2023-08-21T11:05:00;26.50;99.90
6252;DHT22;3159;52.414;9.784;2023-08-21T11:07:29;26.50;99.90
6252;DHT22;3159;52.414;9.784;2023-08-21T11:09:57;26.40;99.90
6252;DHT22;3159;52.414;9.784;2023-08-21T11:12:24;26.40;99.90
6252;DHT22;3159;52.414;9.784;2023-08-21T11:14:51;26.50;99.90
6252;DHT22;3159;52.414;9.784;2023-08-21T11:17:19;26.60;99.90
6252;DHT22;3159;52.414;9.784;2023-08-21T11:19:48;26.80;99.90
6252;DHT22;3159;52.414;9.784;2023-08-21T11:22:16;27.10;99.90
6252;DHT22;3159;52.414;9.784;2023-08-21T11:24:44;27.70;99.90
6252;DHT22;3159;52.414;9.784;2023-08-21T11:27:13;27.70;99.90
6252;DHT22;3159;52.414;9.784;2023-08-21T11:29:42;27.80;99.90
6252;DHT22;3159;52.414;9.784;2023-08-21T11:32:10;28.60;99.90
6252;DHT22;3159;52.414;9.784;2023-08-21T11:34:40;28.00;99.90
6252;DHT22;3159;52.414;9.784;2023-08-21T11:37:07;27.70;99.90
6252;DHT22;3159;52.414;9.784;2023-08-21T11:39:48;27.50;99.90
6252;DHT22;3159;52.414;9.784;2023-08-21T11:42:16;27.20;99.90
6252;DHT22;3159;52.414;9.784;2023-08-21T11:44:45;27.10;99.90
6252;DHT22;3159;52.414;9.784;2023-08-21T11:47:13;27.00;99.90
6252;DHT22;3159;52.414;9.784;2023-08-21T11:49:43;27.00;99.90
6252;DHT22;3159;52.414;9.784;2023-08-21T11:52:13;27.20;99.90
6252;DHT22;3159;52.414;9.784;2023-08-21T11:54:41;27.00;99.90
6252;DHT22;3159;52.414;9.784;2023-08-21T11:57:09;27.10;99.90
6252;DHT22;3159;52.414;9.784;2023-08-21T11:59:38;27.20;99.90
6252;DHT22;3159;52.414;9.784;2023-08-21T12:02:12;27.60;99.90
6252;DHT22;3159;52.414;9.784;2023-08-21T12:04:41;27.40;99.90
6252;DHT22;3159;52.414;9.784;2023-08-21T12:07:08;27.20;99.90
6252;DHT22;3159;52.414;9.784;2023-08-21T12:09:36;27.70;99.90
6252;DHT22;3159;52.414;9.784;2023-08-21T12:12:03;28.00;99.90
6252;DHT22;3159;52.414;9.784;2023-08-21T12:14:31;28.50;99.90
6252;DHT22;3159;52.414;9.784;2023-08-21T12:16:59;28.80;99.90
6252;DHT22;3159;52.414;9.784;2023-08-21T12:19:26;28.30;99.90
6252;DHT22;3159;52.414;9.784;2023-08-21T12:21:54;28.30;99.90
6252;DHT22;3159;52.414;9.784;2023-08-21T12:24:21;29.20;99.90
6252;DHT22;3159;52.414;9.784;2023-08-21T12:26:48;29.10;99.90
6252;DHT22;3159;52.414;9.784;2023-08-21T12:29:15;29.00;99.90
6252;DHT22;3159;52.414;9.784;2023-08-21T12:31:42;29.10;99.90
6252;DHT22;3159;52.414;9.784;2023-08-21T12:34:09;29.10;99.90
6252;DHT22;3159;52.414;9.784;2023-08-21T12:36:36;29.10;99.90
6252;DHT22;3159;52.414;9.784;2023-08-21T12:39:05;29.30;99.90
6252;DHT22;3159;52.414;9.784;2023-08-21T12:41:34;29.30;99.90
6252;DHT22;3159;52.414;9.784;2023-08-21T12:44:02;29.20;99.90
6252;DHT22;3159;52.414;9.784;2023-08-21T12:46:29;28.90;99.90
6252;DHT22;3159;52.414;9.784;2023-08-21T12:48:56;28.80;99.90
6252;DHT22;3159;52.414;9.784;2023-08-21T12:51:24;29.20;99.90
6252;DHT22;3159;52.414;9.784;2023-08-21T12:53:51;29.10;99.90
6252;DHT22;3159;52.414;9.784;2023-08-21T12:56:20;28.80;99.90
6252;DHT22;3159;52.414;9.784;2023-08-21T12:58:47;28.90;99.90
6252;DHT22;3159;52.414;9.784;2023-08-21T13:01:14;29.30;99.90
6252;DHT22;3159;52.414;9.784;2023-08-21T13:03:44;29.00;99.90
6252;DHT22;3159;52.414;9.784;2023-08-21T13:06:12;29.10;99.90
6252;DHT22;3159;52.414;9.784;2023-08-21T13:08:39;28.60;99.90
6252;DHT22;3159;52.414;9.784;2023-08-21T13:11:06;28.90;99.90
6252;DHT22;3159;52.414;9.784;2023-08-21T13:13:35;29.10;99.90
6252;DHT22;3159;52.414;9.784;2023-08-21T13:16:02;29.30;99.90
6252;DHT22;3159;52.414;9.784;2023-08-21T13:18:30;29.20;99.90
6252;DHT22;3159;52.414;9.784;2023-08-21T13:20:57;29.30;99.90
6252;DHT22;3159;52.414;9.784;2023-08-21T13:23:24;29.30;99.90
6252;DHT22;3159;52.414;9.784;2023-08-21T13:25:51;29.40;99.90
6252;DHT22;3159;52.414;9.784;2023-08-21T13:28:18;29.60;99.90
6252;DHT22;3159;52.414;9.784;2023-08-21T13:30:46;29.70;99.90
6252;DHT22;3159;52.414;9.784;2023-08-21T13:33:14;29.70;99.90
6252;DHT22;3159;52.414;9.784;2023-08-21T13:35:43;29.80;99.90
6252;DHT22;3159;52.414;9.784;2023-08-21T13:38:12;29.80;99.90
6252;DHT22;3159;52.414;9.784;2023-08-21T13:40:39;29.90;99.90
6252;DHT22;3159;52.414;9.784;2023-08-21T13:43:06;29.70;99.90
6252;DHT22;3159;52.414;9.784;2023-08-21T13:45:35;29.80;99.90
6252;DHT22;3159;52.414;9.784;2023-08-21T13:48:05;29.80;99.90
6252;DHT22;3159;52.414;9.784;2023-08-21T13:50:32;29.80;99.90
6252;DHT22;3159;52.414;9.784;2023-08-21T13:52:59;29.70;99.90
6252;DHT22;3159;52.414;9.784;2023-08-21T13:55:26;29.70;99.90
6252;DHT22;3159;52.414;9.784;2023-08-21T13:57:53;29.80;99.90
6252;DHT22;3159;52.414;9.784;2023-08-21T14:00:20;29.70;99.90
6252;DHT22;3159;52.414;9.784;2023-08-21T14:02:47;29.80;99.90
6252;DHT22;3159;52.414;9.784;2023-08-21T14:05:15;29.70;99.90
6252;DHT22;3159;52.414;9.784;2023-08-21T14:07:43;29.70;99.90
6252;DHT22;3159;52.414;9.784;2023-08-21T14:10:10;30.00;99.90
6252;DHT22;3159;52.414;9.784;2023-08-21T14:12:39;30.00;99.90
6252;DHT22;3159;52.414;9.784;2023-08-21T14:15:07;29.80;99.90
6252;DHT22;3159;52.414;9.784;2023-08-21T14:17:33;29.80;99.90
6252;DHT22;3159;52.414;9.784;2023-08-21T14:20:00;29.80;99.90
6252;DHT22;3159;52.414;9.784;2023-08-21T14:22:29;29.70;99.90
6252;DHT22;3159;52.414;9.784;2023-08-21T14:24:57;29.90;99.90
6252;DHT22;3159;52.414;9.784;2023-08-21T14:27:24;29.90;99.90
6252;DHT22;3159;52.414;9.784;2023-08-21T14:29:51;29.90;99.90
6252;DHT22;3159;52.414;9.784;2023-08-21T14:32:18;29.90;99.90
6252;DHT22;3159;52.414;9.784;2023-08-21T14:34:45;29.90;99.90
6252;DHT22;3159;52.414;9.784;2023-08-21T14:37:12;29.50;99.90
6252;DHT22;3159;52.414;9.784;2023-08-21T14:39:42;29.50;99.90
6252;DHT22;3159;52.414;9.784;2023-08-21T14:42:09;29.70;99.90
6252;DHT22;3159;52.414;9.784;2023-08-21T14:44:36;29.60;99.90
6252;DHT22;3159;52.414;9.784;2023-08-21T14:47:04;29.60;99.90
6252;DHT22;3159;52.414;9.784;2023-08-21T14:49:30;29.80;99.90
6252;DHT22;3159;52.414;9.784;2023-08-21T14:51:58;29.50;99.90
6252;DHT22;3159;52.414;9.784;2023-08-21T14:54:25;29.60;99.90
6252;DHT22;3159;52.414;9.784;2023-08-21T14:56:55;29.60;99.90
6252;DHT22;3159;52.414;9.784;2023-08-21T14:59:21;29.50;99.90
6252;DHT22;3159;52.414;9.784;2023-08-21T15:01:48;29.60;99.90
6252;DHT22;3159;52.414;9.784;2023-08-21T15:04:15;29.60;99.90
6252;DHT22;3159;52.414;9.784;2023-08-21T15:06:42;29.30;99.90
6252;DHT22;3159;52.414;9.784;2023-08-21T15:09:09;29.20;99.90
6252;DHT22;3159;52.414;9.784;2023-08-21T15:11:36;29.10;99.90
6252;DHT22;3159;52.414;9.784;2023-08-21T15:14:09;29.10;99.90
6252;DHT22;3159;52.414;9.784;2023-08-21T15:16:36;29.00;99.90
6252;DHT22;3159;52.414;9.784;2023-08-21T15:19:03;29.00;99.90
6252;DHT22;3159;52.414;9.784;2023-08-21T15:21:30;29.00;99.90
6252;DHT22;3159;52.414;9.784;2023-08-21T15:23:57;28.80;99.90
6252;DHT22;3159;52.414;9.784;2023-08-21T15:26:24;28.60;99.90
6252;DHT22;3159;52.414;9.784;2023-08-21T15:28:51;28.50;99.90
6252;DHT22;3159;52.414;9.784;2023-08-21T15:31:19;28.50;99.90
6252;DHT22;3159;52.414;9.784;2023-08-21T15:33:46;28.30;99.90
6252;DHT22;3159;52.414;9.784;2023-08-21T15:36:15;28.10;99.90
6252;DHT22;3159;52.414;9.784;2023-08-21T15:38:42;28.30;99.90
6252;DHT22;3159;52.414;9.784;2023-08-21T15:41:09;28.30;99.90
6252;DHT22;3159;52.414;9.784;2023-08-21T15:43:36;28.40;99.90
6252;DHT22;3159;52.414;9.784;2023-08-21T15:46:03;28.50;99.90
6252;DHT22;3159;52.414;9.784;2023-08-21T15:48:32;28.50;99.90
6252;DHT22;3159;52.414;9.784;2023-08-21T15:50:59;28.50;99.90
6252;DHT22;3159;52.414;9.784;2023-08-21T15:53:26;28.50;99.90
6252;DHT22;3159;52.414;9.784;2023-08-21T15:55:53;28.50;99.90
6252;DHT22;3159;52.414;9.784;2023-08-21T15:58:20;28.40;99.90
6252;DHT22;3159;52.414;9.784;2023-08-21T16:00:47;28.40;99.90
6252;DHT22;3159;52.414;9.784;2023-08-21T16:03:14;28.20;99.90
6252;DHT22;3159;52.414;9.784;2023-08-21T16:05:42;28.40;99.90